LSGM7: Little Sugar Creek nr Pineville 7SW

                                SHEF ID:       LSGM7     Little Sugar Creek near Pinevill
STATION TYPE:

PRECIP STAGE STAGE(2) RIV-FLOW VOLTAGE
in ft ft cfs volt
Ccp-Rev Ccp-Rev Ccp-Rev Ccp-Rev Ccp-Rev
(America/Chicago)
06/11 00:00 0.00 3.53 3.57 498 12.47
06/11 01:00 0.00 3.51 3.55 489 12.47
06/11 02:00 0.00 3.49 3.53 481 12.47
06/11 03:00 0.00 3.48 3.50 476 12.47
06/11 04:00 0.00 3.46 3.49 468 12.47
06/11 05:00 0.00 3.43 3.47 455 12.47
06/11 06:00 0.00 3.41 3.45 447 12.47
06/11 07:00 0.00 3.40 3.45 443 12.47
06/11 08:00 0.00 3.38 3.42 435 12.47
06/11 09:00 0.00 3.36 3.41 427 12.71
06/11 10:00 0.00 3.37 3.39 431 12.71
06/11 11:00 0.00 3.34 3.37 419 12.94
06/11 12:00 0.00 3.32 3.35 412 12.71
06/11 13:00 0.00 3.31 3.34 408 12.71
06/11 14:00 0.00 3.29 3.36 400 12.71
06/11 15:00 0.00 3.27 3.33 393 12.71
06/11 16:00 0.00 3.26 3.31 389 12.71
06/11 17:00 0.00 3.25 3.32 385 12.71
06/11 18:00 0.00 3.23 3.30 378 12.71
06/11 19:00 0.00 3.22 3.28 375 12.71
06/11 20:00 0.00 3.20 3.27 367 12.47
06/11 21:00 0.00 3.20 3.25 367 12.47
06/11 22:00 0.62 3.25 3.26 385 12.47
06/11 23:00 ---- ---- ---- ---- ----
Data processed at Fri 12Jun2026 04:30 GMT

NOTICE: If you are parsing this page

Please convert to using our Data API. Starting early 2026 we will be migrating to: https://water.usace.army.mil with modern pages rendered in JavaScript. When this migration completes you will no longer be able to scrape this page! CWMSDataAPI (CDA)

Timeseries IDs (TSIDs)

TSIDs used from left to right in the data table
PINV.Precip-Inc.Total.1Hour.1Hour.Ccp-Rev
PINV.Stage.Inst.1Hour.0.Ccp-Rev
PINV.Stage-Alt.Inst.1Hour.0.Ccp-Rev
PINV.Flow.Inst.1Hour.0.Ccp-Rev
PINV.Volt-Battery.Inst.1Hour.0.Ccp-Rev

                            

All information presented herein is the property of the government of the United States of America and may be revised or deleted at any time without prior notice. Dissemination of this information without the expressed written consent of the Public Affairs Office, Tulsa District U.S. Army Corps of Engineers is strictly prohibited. These data are gathered electronically and, as presented, have NOT undergone any form of quality control. These data are NOT guaranteed to be valid or correct.